Time;durP1;ratioP1;P1;durP2;ratioP2;P2;SDS_P1;SDS_P2;PMS_P1;PMS_P2;Temp;Humidity;BMP_temperature;BMP_pressure;BME280_temperature;BME280_humidity;BME280_pressure;Samples;Min_cycle;Max_cycle;Signal;HPM_P1;HPM_P2
2021/03/20 00:00:58;;;;;;;19.60;9.75;;;6.60;62.80;;;;;;5070355;28;20041;-73
2021/03/20 00:03:25;;;;;;;20.08;10.82;;;;;;;;;;5068880;28;20048;-72
2021/03/20 00:05:53;;;;;;;16.10;10.10;;;6.40;63.40;;;;;;5073864;28;20037;-73
2021/03/20 00:08:27;;;;;;;21.23;10.57;;;;;;;;;;5074561;28;20055;-74
2021/03/20 00:10:55;;;;;;;22.20;9.88;;;6.20;64.20;;;;;;5057692;28;20044;-71
2021/03/20 00:13:24;;;;;;;22.38;10.13;;;6.30;64.00;;;;;;5076668;28;20036;-74
2021/03/20 00:15:56;;;;;;;18.25;9.75;;;6.30;63.90;;;;;;5075809;28;20491;-74
2021/03/20 00:18:24;;;;;;;17.02;9.88;;;6.30;64.20;;;;;;5076398;28;20040;-74
2021/03/20 00:20:54;;;;;;;21.60;10.45;;;6.40;63.70;;;;;;5074617;28;20521;-73
2021/03/20 00:23:21;;;;;;;18.42;9.48;;;;;;;;;;5076733;28;20407;-73
2021/03/20 00:25:48;;;;;;;15.75;9.82;;;;;;;;;;5075634;28;20048;-71
2021/03/20 00:28:21;;;;;;;20.60;10.13;;;6.50;62.70;;;;;;5076289;28;20055;-72
2021/03/20 00:30:55;;;;;;;27.67;11.25;;;6.50;62.30;;;;;;5071629;28;20032;-74
2021/03/20 00:33:22;;;;;;;22.02;10.27;;;;;;;;;;5045114;28;20040;-73
2021/03/20 00:35:49;;;;;;;18.52;10.52;;;;;;;;;;5075360;28;20495;-74
2021/03/20 00:38:17;;;;;;;24.80;11.30;;;6.60;62.60;;;;;;5074524;28;20048;-73
2021/03/20 00:40:45;;;;;;;17.98;10.60;;;6.50;62.60;;;;;;5058299;28;20049;-74
2021/03/20 00:43:12;;;;;;;22.13;10.82;;;;;;;;;;5065641;28;20041;-73
2021/03/20 00:45:39;;;;;;;18.42;11.05;;;;;;;;;;5074428;28;20048;-74
2021/03/20 00:48:22;;;;;;;23.85;10.35;;;6.30;63.20;;;;;;5056819;28;20037;-74
2021/03/20 00:50:49;;;;;;;17.83;10.75;;;;;;;;;;5060714;28;20052;-73
2021/03/20 00:53:19;;;;;;;20.23;11.15;;;;;;;;;;5077520;28;20051;-74
2021/03/20 00:55:47;;;;;;;18.73;11.85;;;6.10;63.90;;;;;;5059095;28;20380;-75
2021/03/20 00:58:35;;;;;;;29.58;12.20;;;6.10;63.90;;;;;;5079722;28;20063;-76
2021/03/20 01:01:05;;;;;;;17.70;11.25;;;6.00;64.00;;;;;;5076177;28;20037;-74
2021/03/20 01:03:32;;;;;;;23.73;11.73;;;;;;;;;;5055779;28;20503;-73
2021/03/20 01:06:00;;;;;;;21.23;12.02;;;;;;;;;;5073266;28;20109;-73
2021/03/20 01:08:27;;;;;;;20.38;12.05;;;;;;;;;;5073034;28;20094;-74
2021/03/20 01:10:53;;;;;;;;;;;6.10;63.30;;;;;;5055975;28;20044;-73
2021/03/20 01:13:20;;;;;;;;;;;6.10;63.90;;;;;;5075027;28;19924;-74
2021/03/20 01:15:46;;;;;;;;;;;6.10;64.10;;;;;;5073892;28;19997;-75
2021/03/20 01:18:14;;;;;;;19.67;10.95;;;;;;;;;;5073534;28;19967;-74
2021/03/20 01:20:42;;;;;;;21.17;12.60;;;;;;;;;;5022592;28;20514;-72
2021/03/20 01:23:09;;;;;;;19.33;11.10;;;;;;;;;;5056388;28;20068;-73
2021/03/20 01:25:36;;;;;;;24.02;12.35;;;;;;;;;;5055863;28;20045;-75
2021/03/20 01:28:04;;;;;;;29.40;12.07;;;;;;;;;;5072922;28;20109;-75
2021/03/20 01:30:35;;;;;;;21.52;11.65;;;6.10;63.30;;;;;;5072617;28;20044;-74
2021/03/20 01:33:03;;;;;;;18.05;10.93;;;;;;;;;;5077149;28;20048;-75
2021/03/20 01:35:30;;;;;;;17.98;12.07;;;;;;;;;;5082106;28;20041;-73
2021/03/20 01:37:57;;;;;;;22.63;12.07;;;;;;;;;;5082562;28;20060;-74
2021/03/20 01:40:29;;;;;;;19.63;11.85;;;6.10;63.10;;;;;;5085093;28;20052;-73
2021/03/20 01:42:56;;;;;;;19.15;11.80;;;;;;;;;;5057926;28;20491;-73
2021/03/20 01:45:28;;;;;;;;;;;6.30;62.40;;;;;;5076734;28;20044;-74
2021/03/20 01:48:07;;;;;;;20.30;11.52;;;6.20;62.10;;;;;;5078593;28;19944;-73
2021/03/20 01:50:56;;;;;;;20.73;12.63;;;6.40;62.00;;;;;;5054820;28;20052;-73
2021/03/20 01:53:41;;;;;;;25.17;11.55;;;6.40;61.60;;;;;;5068623;28;20037;-73
2021/03/20 01:56:17;;;;;;;19.55;12.05;;;6.60;61.20;;;;;;5061539;28;20045;-73
2021/03/20 01:58:45;;;;;;;24.52;11.90;;;6.70;61.10;;;;;;5078032;28;20045;-73
2021/03/20 02:01:25;;;;;;;20.83;11.52;;;6.70;60.70;;;;;;5061476;28;20095;-72
2021/03/20 02:03:53;;;;;;;20.33;11.43;;;6.80;60.10;;;;;;5078158;28;20437;-72
2021/03/20 02:06:21;;;;;;;20.90;11.07;;;;;;;;;;5055312;28;20037;-72
2021/03/20 02:08:49;;;;;;;20.23;11.10;;;7.00;59.20;;;;;;5073553;28;20044;-73
2021/03/20 02:11:46;;;;;;;19.70;10.68;;;7.00;58.90;;;;;;5078982;28;20086;-73
2021/03/20 02:14:42;;;;;;;26.48;11.45;;;7.10;58.40;;;;;;5078769;28;20051;-72
2021/03/20 02:17:44;;;;;;;19.25;10.32;;;7.20;58.20;;;;;;5057967;28;20044;-74
2021/03/20 02:20:49;;;;;;;19.90;11.70;;;7.10;58.30;;;;;;5076695;28;20754;-75
2021/03/20 02:23:40;;;;;;;19.25;11.88;;;6.90;58.80;;;;;;5045019;28;20441;-73
2021/03/20 02:26:37;;;;;;;28.55;12.38;;;6.90;59.10;;;;;;5079353;28;20067;-74
2021/03/20 02:29:41;;;;;;;18.88;11.45;;;6.80;59.20;;;;;;5078126;28;20044;-72
2021/03/20 02:32:41;;;;;;;17.40;11.18;;;6.70;59.60;;;;;;5069638;28;20055;-75
2021/03/20 02:35:20;;;;;;;22.02;11.75;;;6.60;59.80;;;;;;4977233;28;20055;-75
2021/03/20 02:38:06;;;;;;;24.15;12.70;;;6.50;60.20;;;;;;4977244;28;20046;-71
2021/03/20 02:40:38;;;;;;;19.40;11.15;;;6.50;60.00;;;;;;4980590;28;20050;-71
2021/03/20 02:43:39;;;;;;;23.58;12.48;;;6.50;59.60;;;;;;4979167;28;20073;-73
2021/03/20 02:46:06;;;;;;;21.55;11.55;;;;;;;;;;4920557;29;20107;-73
2021/03/20 02:48:55;;;;;;;18.13;11.32;;;6.40;59.70;;;;;;4907831;29;20154;-73
2021/03/20 02:51:33;;;;;;;21.90;12.27;;;6.40;59.80;;;;;;4919691;29;20080;-73
2021/03/20 02:54:16;;;;;;;19.30;11.80;;;6.20;60.00;;;;;;4922174;29;20526;-73
2021/03/20 02:56:55;;;;;;;19.58;12.02;;;6.10;60.60;;;;;;4922748;29;20064;-73
2021/03/20 02:59:28;;;;;;;20.90;12.13;;;5.80;61.40;;;;;;4924082;29;20087;-72
2021/03/20 03:01:57;;;;;;;19.95;11.70;;;5.70;61.80;;;;;;4936353;29;20092;-72
2021/03/20 03:04:26;;;;;;;20.60;12.00;;;5.70;61.90;;;;;;4936714;29;20048;-74
2021/03/20 03:07:04;;;;;;;19.80;12.15;;;5.70;61.60;;;;;;4936291;29;20458;-72
2021/03/20 03:09:56;;;;;;;25.50;11.82;;;5.60;61.40;;;;;;4935503;29;20151;-73
2021/03/20 03:12:39;;;;;;;20.00;12.77;;;5.70;61.30;;;;;;4986215;28;20599;-72
2021/03/20 03:15:12;;;;;;;19.33;11.63;;;5.60;61.40;;;;;;4993388;28;20541;-74
2021/03/20 03:17:55;;;;;;;19.77;12.35;;;5.60;61.50;;;;;;4976130;28;20047;-74
2021/03/20 03:20:37;;;;;;;23.67;12.38;;;5.60;61.20;;;;;;4974138;28;20156;-73
2021/03/20 03:23:08;;;;;;;21.42;12.18;;;5.60;61.20;;;;;;5043106;28;20055;-73
2021/03/20 03:25:39;;;;;;;16.92;11.38;;;5.50;61.30;;;;;;5074828;28;20102;-74
2021/03/20 03:28:10;;;;;;;19.65;12.07;;;5.60;61.00;;;;;;5079959;28;20091;-72
2021/03/20 03:30:37;;;;;;;21.80;11.40;;;;;;;;;;5078107;28;20060;-74
2021/03/20 03:33:12;;;;;;;20.50;11.55;;;5.50;60.60;;;;;;5098131;28;20040;-73
2021/03/20 03:35:44;;;;;;;23.60;11.90;;;5.50;60.70;;;;;;5085320;28;20052;-73
2021/03/20 03:38:35;;;;;;;17.95;11.50;;;5.30;60.90;;;;;;5075999;28;20196;-74
2021/03/20 03:41:27;;;;;;;19.77;11.32;;;5.40;61.00;;;;;;5077376;28;20048;-74
2021/03/20 03:43:54;;;;;;;20.67;11.65;;;;;;;;;;5089099;28;20048;-75
2021/03/20 03:46:28;;;;;;;20.45;12.27;;;5.40;60.70;;;;;;5078309;28;20071;-75
2021/03/20 03:48:59;;;;;;;20.57;11.73;;;5.30;60.60;;;;;;5079488;28;20047;-72
2021/03/20 03:51:27;;;;;;;17.40;10.98;;;5.40;60.60;;;;;;5078469;28;20072;-76
2021/03/20 03:53:57;;;;;;;19.92;11.38;;;5.40;60.10;;;;;;5084316;28;20040;-72
2021/03/20 03:56:50;;;;;;;18.17;11.25;;;5.50;59.70;;;;;;5083204;28;20048;-73
2021/03/20 03:59:25;;;;;;;22.38;11.18;;;5.40;59.90;;;;;;5075618;28;20048;-74
2021/03/20 04:02:23;;;;;;;17.45;10.52;;;5.40;59.70;;;;;;5077382;28;20048;-72
2021/03/20 04:05:12;;;;;;;19.98;11.32;;;5.30;59.90;;;;;;5096139;28;20048;-73
2021/03/20 04:07:56;;;;;;;17.05;10.68;;;5.20;60.10;;;;;;5071582;28;20047;-73
2021/03/20 04:10:33;;;;;;;21.08;12.05;;;5.20;60.00;;;;;;5063254;28;20055;-74
2021/03/20 04:13:31;;;;;;;17.50;10.32;;;5.00;60.20;;;;;;5094299;28;20047;-72
2021/03/20 04:16:03;;;;;;;30.58;11.15;;;4.90;60.30;;;;;;5072704;28;20090;-74
2021/03/20 04:18:41;;;;;;;19.88;11.57;;;5.10;59.80;;;;;;5074154;28;20041;-74
2021/03/20 04:21:21;;;;;;;18.52;9.98;;;5.20;59.40;;;;;;5074662;28;20032;-75
2021/03/20 04:24:20;;;;;;;23.98;11.10;;;5.10;59.30;;;;;;5074797;28;20036;-73
2021/03/20 04:27:08;;;;;;;19.63;10.55;;;4.90;59.70;;;;;;5055227;28;20102;-72
2021/03/20 04:29:52;;;;;;;17.30;10.45;;;4.80;60.00;;;;;;5081827;28;20040;-75
2021/03/20 04:32:37;;;;;;;18.50;10.57;;;4.90;59.70;;;;;;5095984;28;20040;-77
2021/03/20 04:35:22;;;;;;;19.23;10.98;;;4.80;59.60;;;;;;5067307;28;20495;-73
2021/03/20 04:37:52;;;;;;;16.27;10.15;;;5.00;59.10;;;;;;5060893;28;20051;-74
2021/03/20 04:40:45;;;;;;;20.83;10.90;;;5.20;58.60;;;;;;5071655;28;20048;-73
2021/03/20 04:43:15;;;;;;;20.35;10.95;;;5.40;58.10;;;;;;5072226;28;20487;-75
2021/03/20 04:45:47;;;;;;;19.20;10.65;;;5.20;58.30;;;;;;5073150;28;20479;-74
2021/03/20 04:48:35;;;;;;;18.20;10.93;;;5.20;58.60;;;;;;5075173;28;20479;-74
2021/03/20 04:51:21;;;;;;;18.80;10.82;;;5.00;58.90;;;;;;5093389;28;20109;-73
2021/03/20 04:53:49;;;;;;;21.10;11.30;;;4.90;59.20;;;;;;5089033;28;20086;-74
2021/03/20 04:56:19;;;;;;;17.30;11.30;;;4.80;59.40;;;;;;5069176;28;20103;-75
2021/03/20 04:58:52;;;;;;;19.95;11.68;;;4.80;59.50;;;;;;5096230;28;20052;-73
2021/03/20 05:01:31;;;;;;;18.58;11.25;;;4.80;59.50;;;;;;5097126;28;20044;-75
2021/03/20 05:04:04;;;;;;;18.90;10.90;;;4.80;59.40;;;;;;5078131;28;20055;-74
2021/03/20 05:06:31;;;;;;;16.63;10.35;;;;;;;;;;5093817;28;20059;-74
2021/03/20 05:09:04;;;;;;;17.85;11.07;;;4.90;59.60;;;;;;5081268;28;20126;-72
2021/03/20 05:11:39;;;;;;;16.73;10.43;;;4.80;59.30;;;;;;5084018;28;20099;-73
2021/03/20 05:14:11;;;;;;;17.17;11.10;;;5.00;59.10;;;;;;5067970;28;20098;-75
2021/03/20 05:16:47;;;;;;;18.95;11.48;;;4.90;58.70;;;;;;5054441;28;20101;-72
2021/03/20 05:19:15;;;;;;;18.75;10.70;;;4.90;58.70;;;;;;5081312;28;20441;-74
2021/03/20 05:21:45;;;;;;;20.95;10.73;;;5.00;58.80;;;;;;5078665;28;20044;-75
2021/03/20 05:24:14;;;;;;;19.33;11.43;;;;;;;;;;5076991;28;20049;-75
2021/03/20 05:26:41;;;;;;;18.73;10.95;;;;;;;;;;5077745;28;20056;-74
2021/03/20 05:29:08;;;;;;;20.08;11.85;;;;;;;;;;5078499;28;20047;-74
2021/03/20 05:31:38;;;;;;;17.85;10.73;;;;;;;;;;5078597;28;20037;-74
2021/03/20 05:34:23;;;;;;;18.98;11.40;;;4.60;59.60;;;;;;5060164;28;20063;-74
2021/03/20 05:36:51;;;;;;;20.07;11.73;;;;;;;;;;5067804;28;20049;-74
2021/03/20 05:39:18;;;;;;;20.25;10.88;;;;;;;;;;5077519;28;20049;-72
2021/03/20 05:41:45;;;;;;;18.42;10.90;;;;;;;;;;5066959;28;20071;-74
2021/03/20 05:44:14;;;;;;;;;;;4.60;59.70;;;;;;5052026;28;20082;-73
2021/03/20 05:47:01;;;;;;;19.45;10.50;;;4.70;59.10;;;;;;5073036;28;19969;-74
2021/03/20 05:49:28;;;;;;;18.30;10.63;;;;;;;;;;5094807;28;20054;-73
2021/03/20 05:52:32;;;;;;;16.13;10.38;;;4.70;59.10;;;;;;5095567;28;20047;-72
2021/03/20 05:55:20;;;;;;;17.95;10.85;;;4.70;59.00;;;;;;5096922;28;20082;-74
2021/03/20 05:58:14;;;;;;;16.48;10.38;;;4.70;59.10;;;;;;5091024;28;20490;-73
2021/03/20 06:01:12;;;;;;;18.00;10.65;;;4.60;59.20;;;;;;5064337;28;20094;-73
2021/03/20 06:03:39;;;;;;;20.10;9.95;;;;;;;;;;5014803;28;20046;-72
2021/03/20 06:06:35;;;;;;;19.63;10.52;;;4.60;59.30;;;;;;5014568;28;20120;-75
2021/03/20 06:09:35;;;;;;;20.50;10.38;;;4.60;59.20;;;;;;5013361;28;20122;-72
2021/03/20 06:12:39;;;;;;;16.95;10.60;;;4.70;58.90;;;;;;4956051;28;20127;-72
2021/03/20 06:15:22;;;;;;;15.80;9.68;;;4.70;58.90;;;;;;4960069;28;20062;-73
2021/03/20 06:18:21;;;;;;;16.23;10.00;;;4.70;59.00;;;;;;4961462;28;20110;-74
2021/03/20 06:21:02;;;;;;;15.95;10.73;;;4.80;58.70;;;;;;4961014;28;20051;-74
2021/03/20 06:23:29;;;;;;;19.58;9.98;;;;;;;;;;4960171;28;20102;-74
2021/03/20 06:26:13;;;;;;;18.20;9.02;;;5.00;57.90;;;;;;4940787;29;20047;-75
2021/03/20 06:28:43;;;;;;;19.65;10.40;;;5.40;57.60;;;;;;4959031;28;20064;-73
2021/03/20 06:31:22;;;;;;;15.27;9.73;;;5.50;56.90;;;;;;4970404;28;20067;-72
2021/03/20 06:33:50;;;;;;;15.10;8.73;;;;;;;;;;4946942;29;20051;-73
2021/03/20 06:36:17;;;;;;;17.85;9.95;;;;;;;;;;4964764;28;20059;-73
2021/03/20 06:38:50;;;;;;;;;;;5.90;55.80;;;;;;4965681;28;20240;-74
2021/03/20 06:41:17;;;;;;;14.90;9.20;;;;;;;;;;4971545;28;20310;-73
2021/03/20 06:43:55;;;;;;;14.60;9.30;;;6.10;55.00;;;;;;4976757;28;20059;-74
2021/03/20 06:46:31;;;;;;;17.40;9.25;;;6.00;55.30;;;;;;4981312;28;20074;-73
2021/03/20 06:49:00;;;;;;;15.32;9.52;;;5.90;55.80;;;;;;5035791;28;20040;-74
2021/03/20 06:51:29;;;;;;;15.63;9.35;;;6.10;56.10;;;;;;5097865;28;20048;-75
2021/03/20 06:54:05;;;;;;;14.45;9.20;;;6.40;55.70;;;;;;5100745;28;20048;-73
2021/03/20 06:56:36;;;;;;;16.55;9.40;;;6.60;54.60;;;;;;5101033;28;20156;-72
2021/03/20 06:59:12;;;;;;;15.48;9.23;;;6.80;54.60;;;;;;5104313;28;20151;-75
2021/03/20 07:01:42;;;;;;;;;;;6.80;55.00;;;;;;5096992;28;20054;-72
2021/03/20 07:04:48;;;;;;;13.85;8.55;;;7.00;52.90;;;;;;5088411;28;20303;-75
2021/03/20 07:07:42;;;;;;;12.70;8.32;;;7.20;53.00;;;;;;5077945;28;21024;-70
2021/03/20 07:10:25;;;;;;;15.95;9.10;;;7.40;51.20;;;;;;5055631;28;20048;-71
2021/03/20 07:13:26;;;;;;;14.57;8.73;;;7.50;51.20;;;;;;5080936;28;20082;-71
2021/03/20 07:16:12;;;;;;;13.88;8.38;;;7.70;50.90;;;;;;5080373;28;20040;-70
2021/03/20 07:18:49;;;;;;;13.60;7.60;;;8.00;50.10;;;;;;5061795;28;20127;-70
2021/03/20 07:21:24;;;;;;;12.23;7.53;;;8.00;49.70;;;;;;5079182;28;20094;-72
2021/03/20 07:24:15;;;;;;;14.02;8.25;;;8.10;50.00;;;;;;5078756;28;20052;-71
2021/03/20 07:27:02;;;;;;;13.98;7.78;;;8.20;49.20;;;;;;5055462;28;20052;-71
2021/03/20 07:29:55;;;;;;;12.25;7.30;;;8.30;49.00;;;;;;5073585;28;20044;-72
2021/03/20 07:32:25;;;;;;;13.27;7.32;;;8.30;48.70;;;;;;5078587;28;20049;-71
2021/03/20 07:35:21;;;;;;;11.75;7.97;;;8.40;48.30;;;;;;5059598;28;20075;-71
2021/03/20 07:37:48;;;;;;;15.50;7.75;;;;;;;;;;5014142;28;20053;-72
2021/03/20 07:40:20;;;;;;;13.25;7.13;;;8.60;47.70;;;;;;5014449;28;20054;-70
2021/03/20 07:42:47;;;;;;;11.70;6.50;;;;;;;;;;5017052;28;20061;-71
2021/03/20 07:45:13;;;;;;;;;;;8.70;47.10;;;;;;5020166;28;20455;-71
2021/03/20 07:47:43;;;;;;;11.00;6.63;;;9.00;45.50;;;;;;5030641;28;19921;-72
2021/03/20 07:50:24;;;;;;;13.90;6.63;;;9.00;45.50;;;;;;5030030;28;20045;-72
2021/03/20 07:53:10;;;;;;;11.98;6.65;;;9.10;45.40;;;;;;5030319;28;20053;-71
2021/03/20 07:55:58;;;;;;;10.35;6.03;;;9.20;44.70;;;;;;5017643;28;20053;-71
2021/03/20 07:58:51;;;;;;;13.05;6.50;;;9.70;44.70;;;;;;5030099;28;20058;-71
2021/03/20 08:01:20;;;;;;;9.27;5.78;;;9.40;44.00;;;;;;5029989;28;20472;-70
2021/03/20 08:03:55;;;;;;;9.25;5.28;;;9.50;42.20;;;;;;5029311;28;20129;-71
2021/03/20 08:06:39;;;;;;;11.35;5.78;;;9.40;43.20;;;;;;5011155;28;20573;-71
2021/03/20 08:09:18;;;;;;;7.25;4.40;;;9.40;41.00;;;;;;5015457;28;20065;-72
2021/03/20 08:11:47;;;;;;;10.35;5.00;;;9.20;41.00;;;;;;5011797;28;20046;-71
2021/03/20 08:14:40;;;;;;;11.65;4.68;;;9.10;39.60;;;;;;5024666;28;20044;-71
2021/03/20 08:17:12;;;;;;;9.25;4.68;;;9.20;39.90;;;;;;5084502;28;20055;-73
2021/03/20 08:19:40;;;;;;;7.50;4.00;;;;;;;;;;5069639;28;20044;-72
2021/03/20 08:22:45;;;;;;;8.45;4.38;;;9.10;39.20;;;;;;5065617;28;20048;-72
2021/03/20 08:25:40;;;;;;;8.68;4.68;;;9.30;37.70;;;;;;5061534;28;20095;-72
2021/03/20 08:28:44;;;;;;;7.18;4.80;;;9.30;37.90;;;;;;5054740;28;20048;-74
2021/03/20 08:31:28;;;;;;;11.93;4.60;;;9.20;36.70;;;;;;5067503;28;20043;-71
2021/03/20 08:34:34;;;;;;;5.65;4.13;;;9.20;37.40;;;;;;5058632;28;20037;-71
2021/03/20 08:37:22;;;;;;;5.75;4.28;;;9.10;38.50;;;;;;5053387;28;20051;-72
2021/03/20 08:39:49;;;;;;;6.80;4.45;;;;;;;;;;5054286;28;20055;-70
2021/03/20 08:42:37;;;;;;;8.05;4.55;;;9.10;38.80;;;;;;5066708;28;20044;-71
2021/03/20 08:45:20;;;;;;;6.32;4.18;;;;;;;;;;5076261;28;20047;-71
2021/03/20 08:47:59;;;;;;;;;;;9.00;39.00;;;;;;5091234;28;20044;-72
2021/03/20 08:50:47;;;;;;;6.70;4.68;;;9.20;39.80;;;;;;5064281;28;20362;-71
2021/03/20 08:53:44;;;;;;;11.32;4.80;;;9.40;38.80;;;;;;5090862;28;20043;-71
2021/03/20 08:56:34;;;;;;;7.40;4.57;;;9.50;39.10;;;;;;5072507;28;20502;-71
2021/03/20 08:59:30;;;;;;;7.03;4.53;;;9.60;39.50;;;;;;5057997;28;20116;-74
2021/03/20 09:02:01;;;;;;;10.18;4.95;;;9.60;39.20;;;;;;5086109;28;20036;-72
2021/03/20 09:04:32;;;;;;;7.45;4.35;;;9.40;39.30;;;;;;5071090;28;20051;-73
2021/03/20 09:06:59;;;;;;;9.18;4.70;;;;;;;;;;5072570;28;20117;-71
2021/03/20 09:09:26;;;;;;;10.10;5.10;;;;;;;;;;5053988;28;20041;-72
2021/03/20 09:12:29;;;;;;;9.23;4.70;;;9.60;39.40;;;;;;4927734;28;10000702;-72
2021/03/20 09:14:56;;;;;;;8.18;4.97;;;;;;;;;;5069481;28;20289;-73
2021/03/20 09:17:28;;;;;;;13.80;4.82;;;9.80;37.90;;;;;;5052143;28;20052;-73
2021/03/20 09:19:55;;;;;;;7.00;4.50;;;;;;;;;;5069543;28;20131;-70
2021/03/20 09:22:28;;;;;;;7.68;4.88;;;9.70;38.40;;;;;;5052565;28;20033;-72
2021/03/20 09:25:00;;;;;;;7.80;4.50;;;9.90;37.80;;;;;;5069396;28;20076;-71
2021/03/20 09:27:58;;;;;;;7.35;4.38;;;10.00;37.10;;;;;;5052717;28;20040;-71
2021/03/20 09:30:44;;;;;;;12.43;4.70;;;10.10;36.60;;;;;;5069036;28;20044;-72
2021/03/20 09:33:19;;;;;;;8.55;5.57;;;10.10;37.90;;;;;;5063780;28;20471;-71
2021/03/20 09:36:03;;;;;;;8.68;4.47;;;10.20;37.10;;;;;;5051553;28;20457;-72
2021/03/20 09:38:39;;;;;;;8.15;4.68;;;10.20;36.50;;;;;;5064381;28;20427;-72
2021/03/20 09:41:28;;;;;;;7.93;4.05;;;10.20;37.10;;;;;;5082668;28;20058;-71
2021/03/20 09:43:58;;;;;;;8.93;4.55;;;;;;;;;;5082433;28;20445;-70
2021/03/20 09:46:39;;;;;;;10.10;4.70;;;10.20;36.50;;;;;;5087505;28;20048;-73
2021/03/20 09:49:07;;;;;;;13.15;4.82;;;;;;;;;;5088366;28;20055;-73
2021/03/20 09:51:53;;;;;;;;;;;10.40;36.90;;;;;;5089021;28;20561;-71
2021/03/20 09:54:31;;;;;;;9.02;4.90;;;10.60;36.30;;;;;;5088555;28;19932;-72
2021/03/20 09:59:34;;;;;;;8.73;4.90;;;;;;;;;;5083744;28;20048;-72
2021/03/20 10:02:24;;;;;;;6.25;4.30;;;10.50;36.20;;;;;;5056126;28;20048;-72
2021/03/20 10:04:59;;;;;;;6.30;4.55;;;10.50;35.90;;;;;;5039488;28;20056;-72
2021/03/20 10:07:30;;;;;;;10.10;4.72;;;10.50;35.80;;;;;;5061390;28;20506;-71
2021/03/20 10:09:57;;;;;;;6.80;4.65;;;;;;;;;;5087765;28;20044;-71
2021/03/20 10:12:42;;;;;;;6.15;4.80;;;10.30;36.30;;;;;;5084098;28;20063;-72
2021/03/20 10:15:14;;;;;;;9.13;5.05;;;;;;;;;;5081785;28;20542;-71
2021/03/20 10:18:04;;;;;;;7.85;4.68;;;10.70;36.60;;;;;;5070207;28;20052;-72
2021/03/20 10:20:55;;;;;;;8.77;5.43;;;10.80;36.10;;;;;;5087159;28;20044;-71
2021/03/20 10:23:41;;;;;;;7.32;4.43;;;10.90;37.10;;;;;;5087491;28;20071;-72
2021/03/20 10:26:29;;;;;;;10.93;5.15;;;11.00;35.90;;;;;;5056694;28;20403;-74
2021/03/20 10:29:00;;;;;;;11.13;4.93;;;11.10;37.20;;;;;;5079287;28;20056;-72
2021/03/20 10:31:31;;;;;;;6.97;4.90;;;11.10;35.50;;;;;;5075270;28;20952;-73
2021/03/20 10:34:09;;;;;;;8.88;4.93;;;11.10;36.30;;;;;;5087911;28;20059;-73
2021/03/20 10:36:41;;;;;;;7.90;4.85;;;11.10;36.00;;;;;;5081959;28;20051;-73
2021/03/20 10:39:27;;;;;;;7.05;4.55;;;11.20;36.60;;;;;;5068223;28;20155;-71
2021/03/20 10:41:59;;;;;;;9.88;4.95;;;11.40;35.00;;;;;;5092762;28;20051;-71
2021/03/20 10:44:38;;;;;;;8.23;4.60;;;11.40;34.00;;;;;;5058075;28;20056;-75
2021/03/20 10:47:28;;;;;;;8.10;4.28;;;11.40;34.60;;;;;;5094018;28;20142;-73
2021/03/20 10:50:08;;;;;;;7.55;4.55;;;11.40;34.50;;;;;;5091838;28;20044;-73
2021/03/20 10:52:39;;;;;;;11.35;4.80;;;11.80;35.70;;;;;;5073873;28;20060;-73
2021/03/20 10:55:28;;;;;;;11.18;4.85;;;12.10;36.00;;;;;;5072939;28;20044;-73
2021/03/20 10:57:57;;;;;;;8.05;4.53;;;;;;;;;;5058978;28;20051;-73
2021/03/20 11:00:24;;;;;;;9.35;4.82;;;;;;;;;;5084984;28;20478;-76
2021/03/20 11:02:51;;;;;;;8.95;4.50;;;;;;;;;;5092310;28;20596;-77
2021/03/20 11:05:21;;;;;;;10.88;4.38;;;13.80;32.10;;;;;;5056626;28;20055;-78
2021/03/20 11:07:58;;;;;;;6.93;4.30;;;14.10;31.70;;;;;;5091898;28;20048;-72
2021/03/20 11:10:27;;;;;;;6.82;4.32;;;14.40;30.60;;;;;;5091527;28;20044;-76
2021/03/20 11:12:55;;;;;;;9.65;4.72;;;14.40;30.00;;;;;;5082658;28;20396;-75
2021/03/20 11:15:26;;;;;;;10.38;4.40;;;14.80;30.30;;;;;;5086544;28;20495;-74
2021/03/20 11:17:58;;;;;;;5.70;4.15;;;15.10;30.00;;;;;;5073043;28;20063;-73
2021/03/20 11:20:34;;;;;;;9.73;5.05;;;15.20;29.70;;;;;;5073106;28;20069;-75
2021/03/20 11:23:01;;;;;;;11.60;4.63;;;;;;;;;;5090933;28;20051;-75
2021/03/20 11:25:42;;;;;;;7.65;3.88;;;15.10;28.30;;;;;;5072921;28;20036;-74
2021/03/20 11:28:14;;;;;;;11.52;6.18;;;14.90;28.90;;;;;;5072150;28;20040;-77
2021/03/20 11:30:45;;;;;;;7.68;4.07;;;15.00;28.50;;;;;;5087712;28;20071;-76
2021/03/20 11:33:19;;;;;;;7.35;3.83;;;15.10;29.00;;;;;;5091815;28;20063;-76
2021/03/20 11:35:50;;;;;;;6.43;4.15;;;15.10;27.90;;;;;;5091211;28;20064;-75
2021/03/20 11:38:19;;;;;;;5.38;3.83;;;15.00;28.90;;;;;;5074975;28;20442;-77
2021/03/20 11:41:04;;;;;;;10.93;4.18;;;15.10;28.70;;;;;;5090880;28;20145;-74
2021/03/20 11:43:40;;;;;;;9.63;4.40;;;15.20;28.80;;;;;;5091112;28;20549;-76
2021/03/20 11:46:08;;;;;;;7.90;4.53;;;15.40;29.00;;;;;;5090448;28;20039;-75
2021/03/20 11:48:52;;;;;;;6.60;4.13;;;15.40;30.00;;;;;;5072700;28;20132;-75
2021/03/20 11:51:37;;;;;;;6.35;3.97;;;15.40;29.20;;;;;;5091012;28;20462;-74
2021/03/20 11:54:19;;;;;;;7.22;3.80;;;15.50;29.40;;;;;;5077911;28;20047;-74
2021/03/20 11:56:53;;;;;;;8.77;4.22;;;15.90;29.20;;;;;;5078997;28;20048;-76
2021/03/20 11:59:44;;;;;;;14.57;4.70;;;16.00;29.60;;;;;;5091631;28;20071;-76
2021/03/20 12:02:25;;;;;;;11.82;4.10;;;16.30;28.40;;;;;;5095381;28;20044;-77
2021/03/20 12:05:14;;;;;;;6.55;3.90;;;16.40;28.50;;;;;;5091240;28;20032;-74
2021/03/20 12:07:41;;;;;;;5.90;4.07;;;16.10;28.70;;;;;;5073114;28;20040;-74
2021/03/20 12:10:23;;;;;;;10.27;4.25;;;15.90;28.90;;;;;;5076082;28;20108;-77
2021/03/20 12:12:53;;;;;;;9.50;4.50;;;15.80;28.90;;;;;;5084513;28;20108;-74
2021/03/20 12:15:29;;;;;;;5.90;4.05;;;15.80;28.80;;;;;;5068285;28;20044;-75
2021/03/20 12:18:01;;;;;;;9.45;4.03;;;15.50;28.90;;;;;;5074526;28;20047;-74
2021/03/20 12:20:33;;;;;;;7.63;4.10;;;15.60;28.80;;;;;;5097226;28;20063;-74
2021/03/20 12:23:19;;;;;;;7.00;4.15;;;15.70;28.70;;;;;;5097645;28;20048;-75
2021/03/20 12:25:54;;;;;;;5.68;3.95;;;15.70;29.40;;;;;;5074697;28;20059;-76
2021/03/20 12:28:39;;;;;;;7.63;4.05;;;15.90;29.10;;;;;;5082421;28;20132;-74
2021/03/20 12:31:17;;;;;;;7.07;4.07;;;16.00;29.30;;;;;;5081830;28;20042;-76
2021/03/20 12:34:04;;;;;;;8.27;4.10;;;15.90;28.60;;;;;;5092165;28;20074;-74
2021/03/20 12:36:50;;;;;;;6.22;3.80;;;15.40;29.30;;;;;;5065542;28;20057;-71
2021/03/20 12:39:22;;;;;;;6.38;3.72;;;15.10;29.60;;;;;;5080561;28;20049;-74
2021/03/20 12:41:55;;;;;;;8.38;4.50;;;15.00;29.50;;;;;;5089827;28;20048;-73
2021/03/20 12:44:27;;;;;;;8.68;4.28;;;15.20;29.80;;;;;;5070914;28;20073;-74
2021/03/20 12:47:03;;;;;;;6.30;3.95;;;15.20;28.90;;;;;;5089144;28;20183;-73
2021/03/20 12:49:35;;;;;;;7.18;4.30;;;15.30;29.70;;;;;;5088935;28;20397;-75
2021/03/20 12:52:21;;;;;;;9.20;3.80;;;15.40;27.90;;;;;;5089146;28;20502;-74
2021/03/20 12:54:53;;;;;;;5.35;3.58;;;15.40;28.70;;;;;;5064034;28;20044;-73
2021/03/20 12:57:28;;;;;;;5.10;3.50;;;15.30;28.00;;;;;;5090453;28;20528;-73
2021/03/20 12:59:57;;;;;;;6.00;3.63;;;15.30;28.20;;;;;;5091162;28;21032;-73
2021/03/20 13:02:23;;;;;;;7.00;4.20;;;15.10;29.00;;;;;;5092246;28;20139;-74
2021/03/20 13:04:51;;;;;;;6.75;3.60;;;14.90;28.60;;;;;;5091718;28;20123;-74
2021/03/20 13:07:19;;;;;;;4.88;3.30;;;15.00;29.20;;;;;;5073558;28;20032;-73
2021/03/20 13:09:50;;;;;;;4.90;3.60;;;15.10;29.60;;;;;;5091273;28;20051;-75
2021/03/20 13:12:17;;;;;;;6.88;4.00;;;15.10;29.90;;;;;;5091532;28;20047;-74
2021/03/20 13:14:45;;;;;;;8.63;4.20;;;15.20;30.40;;;;;;5073079;28;20397;-73
2021/03/20 13:17:13;;;;;;;8.68;4.00;;;15.40;30.00;;;;;;5091456;28;20054;-73
2021/03/20 13:19:45;;;;;;;9.45;4.20;;;15.60;29.80;;;;;;5091101;28;20059;-74
2021/03/20 13:22:13;;;;;;;8.90;4.40;;;;;;;;;;5059463;28;20072;-73
2021/03/20 13:24:40;;;;;;;9.38;4.00;;;15.30;30.50;;;;;;5068896;28;20405;-76
2021/03/20 13:27:08;;;;;;;7.20;4.22;;;15.20;30.70;;;;;;5073077;28;20076;-74
2021/03/20 13:29:35;;;;;;;10.30;5.05;;;15.30;29.70;;;;;;5091523;28;20040;-75
2021/03/20 13:32:03;;;;;;;21.40;5.28;;;15.20;29.30;;;;;;5073160;28;20568;-73
2021/03/20 13:34:29;;;;;;;5.85;3.95;;;15.20;30.00;;;;;;5090790;28;20047;-77
2021/03/20 13:36:56;;;;;;;6.63;4.03;;;15.30;29.40;;;;;;5080308;28;20102;-75
2021/03/20 13:39:23;;;;;;;5.30;3.50;;;15.30;30.00;;;;;;5080275;28;20044;-73
2021/03/20 13:41:49;;;;;;;7.22;4.25;;;15.50;29.90;;;;;;5090634;28;20051;-74
2021/03/20 13:44:16;;;;;;;9.35;4.32;;;15.20;29.80;;;;;;5091782;28;20446;-74
2021/03/20 13:46:43;;;;;;;;;;;15.20;30.40;;;;;;5091315;28;20043;-72
2021/03/20 13:49:10;;;;;;;9.90;5.05;;;15.20;29.90;;;;;;5090923;28;20358;-75
2021/03/20 13:51:39;;;;;;;7.93;4.65;;;15.50;30.50;;;;;;5052529;28;20068;-74
2021/03/20 13:54:07;;;;;;;10.43;4.50;;;15.40;30.00;;;;;;5081014;28;20044;-73
2021/03/20 13:56:33;;;;;;;6.57;3.92;;;15.40;30.50;;;;;;5072507;28;20040;-73